createdAt,value
2016-08-04T00:00:15.728Z,988.18
2016-08-04T00:01:15.726Z,988.13
2016-08-04T00:02:15.730Z,988.19
2016-08-04T00:03:15.729Z,988.17
2016-08-04T00:04:15.731Z,988.17
2016-08-04T00:05:15.737Z,988.18
2016-08-04T00:06:15.746Z,988.2
2016-08-04T00:07:15.749Z,988.19
2016-08-04T00:08:15.748Z,988.2
2016-08-04T00:09:15.745Z,988.2
2016-08-04T00:10:15.751Z,988.25
2016-08-04T00:11:15.750Z,988.25
2016-08-04T00:12:15.753Z,988.24
2016-08-04T00:13:15.756Z,988.26
2016-08-04T00:14:15.763Z,988.28
2016-08-04T00:15:15.762Z,988.27
2016-08-04T00:16:15.765Z,988.27
2016-08-04T00:17:15.767Z,988.31
2016-08-04T00:18:15.770Z,988.32
2016-08-04T00:19:15.772Z,988.25
2016-08-04T00:20:15.774Z,988.3
2016-08-04T00:21:15.777Z,988.26
2016-08-04T00:22:15.780Z,988.24
2016-08-04T00:23:15.785Z,988.25
2016-08-04T00:24:15.784Z,988.19
2016-08-04T00:25:15.802Z,988.16
2016-08-04T00:26:15.804Z,988.1
2016-08-04T00:27:15.804Z,988.09
2016-08-04T00:28:15.803Z,988.08
2016-08-04T00:29:15.805Z,988.11
2016-08-04T00:30:15.808Z,988.13
2016-08-04T00:31:15.806Z,988.06
2016-08-04T00:32:15.807Z,988.03
2016-08-04T00:33:15.815Z,988.04
2016-08-04T00:34:15.811Z,988.08
2016-08-04T00:35:15.813Z,988.04
2016-08-04T00:36:15.817Z,988.03
2016-08-04T00:37:15.820Z,987.99
2016-08-04T00:38:15.823Z,988.07
2016-08-04T00:39:15.824Z,988.01
2016-08-04T00:40:15.831Z,988.03
2016-08-04T00:41:15.829Z,988.05
2016-08-04T00:42:15.832Z,988.08
2016-08-04T00:43:15.834Z,988.09
2016-08-04T00:44:15.838Z,988.09
2016-08-04T00:45:15.840Z,988.08
2016-08-04T00:46:15.842Z,988.11
2016-08-04T00:47:15.844Z,988.07
2016-08-04T00:48:15.847Z,988.06
2016-08-04T00:49:15.851Z,988.09
2016-08-04T00:50:15.853Z,988.04
2016-08-04T00:51:16.004Z,988.06
2016-08-04T00:52:15.856Z,988.08
2016-08-04T00:53:15.862Z,988.06
2016-08-04T00:54:15.864Z,988.08
2016-08-04T00:55:15.864Z,988.06
2016-08-04T00:56:15.875Z,988.03
2016-08-04T00:57:15.874Z,988.03
2016-08-04T00:58:15.876Z,988
2016-08-04T00:59:15.877Z,988
2016-08-04T01:00:15.876Z,987.96
2016-08-04T01:01:15.885Z,987.97
2016-08-04T01:02:15.881Z,987.98
2016-08-04T01:03:15.886Z,987.94
2016-08-04T01:04:15.885Z,987.98
2016-08-04T01:05:15.897Z,987.99
2016-08-04T01:06:15.890Z,988
2016-08-04T01:07:15.893Z,988.06
2016-08-04T01:08:15.894Z,988.03
2016-08-04T01:09:15.896Z,988.02
2016-08-04T01:10:15.899Z,988.01
2016-08-04T01:11:15.900Z,988
2016-08-04T01:12:15.912Z,988
2016-08-04T01:13:15.906Z,987.97
2016-08-04T01:14:15.908Z,987.98
2016-08-04T01:15:15.910Z,987.97
2016-08-04T01:16:15.912Z,987.95
2016-08-04T01:17:15.915Z,987.91
2016-08-04T01:18:15.918Z,987.9
2016-08-04T01:19:15.919Z,987.86
2016-08-04T01:20:15.922Z,987.92
2016-08-04T01:21:15.939Z,987.9
2016-08-04T01:22:15.925Z,987.9
2016-08-04T01:23:15.928Z,987.93
2016-08-04T01:24:15.934Z,987.93
2016-08-04T01:25:15.937Z,987.97
2016-08-04T01:26:15.948Z,987.9
2016-08-04T01:27:15.939Z,987.92
2016-08-04T01:28:15.942Z,987.88
2016-08-04T01:29:15.941Z,987.8
2016-08-04T01:30:15.943Z,987.78
2016-08-04T01:31:15.953Z,987.78
2016-08-04T01:32:15.952Z,987.76
2016-08-04T01:33:15.959Z,987.76
2016-08-04T01:34:15.955Z,987.83
2016-08-04T01:35:15.958Z,987.84
2016-08-04T01:36:15.957Z,987.85
2016-08-04T01:37:15.959Z,987.83
2016-08-04T01:38:15.962Z,987.88
2016-08-04T01:39:15.965Z,987.95
2016-08-04T01:40:15.965Z,987.96
2016-08-04T01:41:15.968Z,987.92
2016-08-04T01:42:15.970Z,987.93
2016-08-04T01:43:15.972Z,987.92
2016-08-04T01:44:15.973Z,987.88
2016-08-04T01:45:15.977Z,987.84
2016-08-04T01:46:15.979Z,987.87
2016-08-04T01:47:15.982Z,987.86
2016-08-04T01:48:15.985Z,987.91
2016-08-04T01:49:15.985Z,987.88
2016-08-04T01:50:15.987Z,987.86
2016-08-04T01:51:15.990Z,987.9
2016-08-04T01:52:15.991Z,987.91
2016-08-04T01:53:15.993Z,987.86
2016-08-04T01:54:15.996Z,987.86
2016-08-04T01:55:15.997Z,987.86
2016-08-04T01:56:15.999Z,987.88
2016-08-04T01:57:16.001Z,987.89
2016-08-04T01:58:16.004Z,987.91
2016-08-04T01:59:16.006Z,987.9
2016-08-04T02:00:16.007Z,987.85
2016-08-04T02:01:16.016Z,987.91
2016-08-04T02:02:16.013Z,987.83
2016-08-04T02:03:16.014Z,987.83
2016-08-04T02:04:16.016Z,987.82
2016-08-04T02:05:16.018Z,987.81
2016-08-04T02:06:16.032Z,987.83
2016-08-04T02:07:16.031Z,987.82
2016-08-04T02:08:16.031Z,987.8
2016-08-04T02:09:16.028Z,987.88
2016-08-04T02:10:16.031Z,987.88
2016-08-04T02:11:16.032Z,987.9
2016-08-04T02:12:16.031Z,987.93
2016-08-04T02:13:16.034Z,987.94
2016-08-04T02:14:16.034Z,988
2016-08-04T02:15:16.036Z,988
2016-08-04T02:16:16.039Z,987.97
2016-08-04T02:17:16.040Z,987.97
2016-08-04T02:18:16.042Z,987.98
2016-08-04T02:19:16.046Z,987.94
2016-08-04T02:21:16.048Z,987.93
2016-08-04T02:22:16.056Z,987.95
2016-08-04T02:23:16.051Z,988
2016-08-04T02:24:16.058Z,987.98
2016-08-04T02:25:16.055Z,987.99
2016-08-04T02:26:16.056Z,988.02
2016-08-04T02:27:16.061Z,987.99
2016-08-04T02:28:16.062Z,987.99
2016-08-04T02:29:16.062Z,987.99
2016-08-04T02:30:16.064Z,987.99
2016-08-04T02:31:16.067Z,988.01
2016-08-04T02:32:16.069Z,987.98
2016-08-04T02:33:16.070Z,988
2016-08-04T02:34:16.074Z,988.02
2016-08-04T02:36:16.076Z,987.99
2016-08-04T02:37:16.080Z,988
2016-08-04T02:38:16.081Z,988
2016-08-04T02:39:16.083Z,988.01
2016-08-04T02:40:16.084Z,987.99
2016-08-04T02:41:16.087Z,988.01
2016-08-04T02:42:16.089Z,988
2016-08-04T02:43:16.091Z,988.01
2016-08-04T02:44:16.093Z,988
2016-08-04T02:45:16.095Z,988.01
2016-08-04T02:46:16.095Z,988.01
2016-08-04T02:47:16.098Z,988
2016-08-04T02:48:16.101Z,987.96
2016-08-04T02:49:16.105Z,987.97
2016-08-04T02:51:16.156Z,987.95
2016-08-04T02:52:16.108Z,987.95
2016-08-04T02:53:16.110Z,987.93
2016-08-04T02:54:16.114Z,987.99
2016-08-04T02:55:16.115Z,988.01
2016-08-04T02:56:16.116Z,987.99
2016-08-04T02:57:16.117Z,987.99
2016-08-04T02:58:16.119Z,988.03
2016-08-04T02:59:16.122Z,987.98
2016-08-04T03:00:16.125Z,988.03
2016-08-04T03:01:16.125Z,987.97
2016-08-04T03:02:16.129Z,988.01
2016-08-04T03:03:16.131Z,988
2016-08-04T03:04:16.132Z,988.03
2016-08-04T03:05:16.134Z,988.01
2016-08-04T03:06:16.136Z,988.02
2016-08-04T03:07:16.139Z,988.03
2016-08-04T03:08:16.139Z,988.04
2016-08-04T03:09:16.147Z,988.07
2016-08-04T03:10:16.144Z,988.06
2016-08-04T03:11:16.145Z,988.09
2016-08-04T03:12:16.148Z,988.07
2016-08-04T03:13:16.151Z,988.07
2016-08-04T03:14:16.151Z,988.12
2016-08-04T03:15:16.154Z,988.1
2016-08-04T03:16:16.155Z,988.12
2016-08-04T03:17:16.156Z,988.12
2016-08-04T03:18:16.159Z,988.13
2016-08-04T03:19:16.164Z,988.1
2016-08-04T03:20:16.162Z,988.12
2016-08-04T03:21:16.166Z,988.09
2016-08-04T03:22:16.166Z,988.06
2016-08-04T03:23:16.168Z,988.06
2016-08-04T03:24:16.170Z,988.05
2016-08-04T03:25:16.173Z,988.09
2016-08-04T03:26:16.175Z,988.04
2016-08-04T03:27:16.175Z,988.04
2016-08-04T03:28:16.178Z,988.08
2016-08-04T03:29:16.180Z,988.07
2016-08-04T03:30:16.181Z,988.02
2016-08-04T03:31:16.184Z,988.06
2016-08-04T03:32:16.202Z,988.07
2016-08-04T03:33:16.187Z,988.05
2016-08-04T03:34:16.190Z,988
2016-08-04T03:35:16.200Z,988
2016-08-04T03:36:16.193Z,988.01
2016-08-04T03:37:16.197Z,987.99
2016-08-04T03:38:16.196Z,988
2016-08-04T03:39:16.198Z,987.98
2016-08-04T03:40:16.200Z,987.97
2016-08-04T03:41:16.200Z,987.91
2016-08-04T03:42:16.204Z,987.99
2016-08-04T03:43:16.204Z,987.94
2016-08-04T03:44:16.207Z,987.95
2016-08-04T03:45:16.213Z,987.97
2016-08-04T03:46:16.210Z,987.95
2016-08-04T03:47:16.213Z,987.95
2016-08-04T03:48:16.213Z,987.9
2016-08-04T03:49:16.215Z,987.95
2016-08-04T03:50:16.279Z,987.94
2016-08-04T03:51:16.320Z,987.94
2016-08-04T03:52:16.226Z,987.95
2016-08-04T03:53:16.227Z,987.96
2016-08-04T03:54:16.230Z,987.98
2016-08-04T03:55:16.229Z,987.94
2016-08-04T03:56:16.228Z,987.95
2016-08-04T03:57:16.231Z,987.9
2016-08-04T03:58:16.231Z,987.92
2016-08-04T03:59:16.233Z,987.85
2016-08-04T04:00:16.236Z,987.88
2016-08-04T04:01:16.237Z,987.87
2016-08-04T04:02:16.239Z,987.83
2016-08-04T04:03:16.243Z,987.85
2016-08-04T04:04:16.242Z,987.83
2016-08-04T04:05:16.251Z,987.85
2016-08-04T04:06:16.246Z,987.83
2016-08-04T04:07:16.247Z,987.82
2016-08-04T04:08:16.250Z,987.83
2016-08-04T04:09:16.251Z,987.76
2016-08-04T04:10:16.253Z,987.81
2016-08-04T04:11:16.255Z,987.84
2016-08-04T04:12:16.257Z,987.84
2016-08-04T04:13:16.260Z,987.82
2016-08-04T04:14:16.260Z,987.84
2016-08-04T04:15:16.263Z,987.87
2016-08-04T04:16:16.264Z,987.9
2016-08-04T04:17:16.267Z,987.88
2016-08-04T04:18:16.269Z,987.88
2016-08-04T04:19:16.270Z,987.91
2016-08-04T04:20:16.307Z,987.9
2016-08-04T04:21:16.274Z,987.9
2016-08-04T04:22:16.280Z,987.9
2016-08-04T04:23:16.279Z,987.93
2016-08-04T04:24:16.278Z,987.93
2016-08-04T04:25:16.279Z,987.93
2016-08-04T04:26:16.281Z,987.91
2016-08-04T04:27:16.285Z,987.89
2016-08-04T04:28:16.286Z,987.87
2016-08-04T04:29:16.291Z,987.92
2016-08-04T04:30:16.289Z,987.97
2016-08-04T04:31:16.291Z,987.97
2016-08-04T04:32:16.292Z,987.93
2016-08-04T04:33:16.306Z,987.94
2016-08-04T04:34:16.308Z,987.98
2016-08-04T04:35:16.308Z,987.96
2016-08-04T04:36:16.307Z,987.98
2016-08-04T04:37:16.313Z,987.95
2016-08-04T04:38:16.309Z,987.96
2016-08-04T04:39:16.311Z,987.93
2016-08-04T04:40:16.309Z,987.92
2016-08-04T04:41:16.312Z,987.98
2016-08-04T04:42:16.315Z,988.06
2016-08-04T04:43:16.317Z,988.1
2016-08-04T04:44:16.319Z,987.99
2016-08-04T04:45:16.322Z,987.99
2016-08-04T04:46:16.325Z,988.01
2016-08-04T04:47:16.326Z,988.02
2016-08-04T04:48:16.329Z,988.07
2016-08-04T04:49:16.332Z,988.06
2016-08-04T04:50:16.335Z,988.03
2016-08-04T04:51:16.337Z,988.06
2016-08-04T04:52:16.341Z,988.02
2016-08-04T04:53:16.349Z,987.93
2016-08-04T04:54:16.346Z,988
2016-08-04T04:55:16.348Z,988.01
2016-08-04T04:56:16.352Z,987.91
2016-08-04T04:57:16.355Z,987.92
2016-08-04T04:58:16.356Z,987.88
2016-08-04T04:59:16.361Z,987.9
2016-08-04T05:00:16.363Z,987.9
2016-08-04T05:01:16.367Z,987.87
2016-08-04T05:02:16.369Z,987.93
2016-08-04T05:03:16.381Z,987.88
2016-08-04T05:04:16.379Z,987.92
2016-08-04T05:05:16.378Z,987.96
2016-08-04T05:06:16.384Z,987.93
2016-08-04T05:07:16.386Z,987.92
2016-08-04T05:08:16.390Z,987.94
2016-08-04T05:09:16.391Z,987.92
2016-08-04T05:10:16.396Z,987.96
2016-08-04T05:11:16.399Z,987.97
2016-08-04T05:12:16.403Z,987.96
2016-08-04T05:13:16.406Z,987.94
2016-08-04T05:14:16.409Z,987.94
2016-08-04T05:15:16.414Z,987.94
2016-08-04T05:16:16.416Z,987.96
2016-08-04T05:17:16.423Z,987.95
2016-08-04T05:18:16.431Z,987.94
2016-08-04T05:19:16.427Z,987.96
2016-08-04T05:20:16.430Z,987.97
2016-08-04T05:21:16.434Z,987.98
2016-08-04T05:22:16.437Z,987.96
2016-08-04T05:23:16.440Z,987.92
2016-08-04T05:24:16.444Z,987.92
2016-08-04T05:25:16.451Z,987.96
2016-08-04T05:26:16.450Z,987.98
2016-08-04T05:27:16.452Z,987.95
2016-08-04T05:28:16.456Z,987.98
2016-08-04T05:29:16.460Z,987.97
2016-08-04T05:30:16.463Z,988.01
2016-08-04T05:31:16.466Z,987.98
2016-08-04T05:32:16.471Z,987.99
2016-08-04T05:33:16.473Z,987.98
2016-08-04T05:34:16.477Z,988.04
2016-08-04T05:35:16.480Z,987.96
2016-08-04T05:36:16.484Z,987.89
2016-08-04T05:37:16.488Z,987.87
2016-08-04T05:38:16.493Z,987.86
2016-08-04T05:39:16.509Z,987.81
2016-08-04T05:40:16.499Z,987.77
2016-08-04T05:41:16.505Z,987.78
2016-08-04T05:42:16.506Z,987.76
2016-08-04T05:43:16.511Z,987.8
2016-08-04T05:44:16.516Z,987.66
2016-08-04T05:45:16.520Z,987.62
2016-08-04T05:46:16.525Z,987.63
2016-08-04T05:47:16.550Z,987.74
2016-08-04T05:48:16.539Z,987.78
2016-08-04T05:49:16.537Z,987.77
2016-08-04T05:50:16.542Z,987.76
2016-08-04T05:51:16.596Z,987.7
2016-08-04T05:52:16.552Z,987.73
2016-08-04T05:53:16.555Z,987.75
2016-08-04T05:54:16.560Z,987.74
2016-08-04T05:55:16.564Z,987.73
2016-08-04T05:56:16.569Z,987.82
2016-08-04T05:57:16.572Z,987.88
2016-08-04T05:58:16.576Z,987.91
2016-08-04T05:59:16.580Z,987.9
2016-08-04T06:00:16.587Z,987.84
2016-08-04T06:01:16.592Z,987.93
2016-08-04T06:02:16.593Z,987.93
2016-08-04T06:03:16.596Z,987.91
2016-08-04T06:04:16.604Z,987.89
2016-08-04T06:05:16.607Z,987.89
2016-08-04T06:07:16.616Z,987.9
2016-08-04T06:08:16.615Z,987.89
2016-08-04T06:09:16.619Z,987.91
2016-08-04T06:10:16.624Z,987.93
2016-08-04T06:11:16.626Z,987.94
2016-08-04T06:12:16.630Z,987.96
2016-08-04T06:13:16.638Z,988.02
2016-08-04T06:14:16.638Z,987.92
2016-08-04T06:15:16.641Z,987.96
2016-08-04T06:16:16.646Z,987.97
2016-08-04T06:17:16.651Z,987.98
2016-08-04T06:18:16.654Z,987.97
2016-08-04T06:19:16.658Z,987.95
2016-08-04T06:20:16.687Z,987.99
2016-08-04T06:22:16.674Z,987.99
2016-08-04T06:23:16.677Z,988.02
2016-08-04T06:24:16.684Z,987.99
2016-08-04T06:25:16.689Z,987.95
2016-08-04T06:26:16.695Z,987.98
2016-08-04T06:27:16.705Z,987.98
2016-08-04T06:28:16.705Z,987.91
2016-08-04T06:29:16.710Z,987.9
2016-08-04T06:30:16.719Z,987.89
2016-08-04T06:31:16.724Z,987.92
2016-08-04T06:32:16.730Z,987.91
2016-08-04T06:33:16.735Z,987.92
2016-08-04T06:34:16.750Z,987.97
2016-08-04T06:35:16.769Z,987.95
2016-08-04T06:37:16.766Z,987.94
2016-08-04T06:38:16.770Z,987.91
2016-08-04T06:39:16.778Z,987.91
2016-08-04T06:40:16.784Z,987.93
2016-08-04T06:41:16.791Z,987.87
2016-08-04T06:42:16.800Z,987.9
2016-08-04T06:43:16.808Z,987.97
2016-08-04T06:44:16.815Z,987.91
2016-08-04T06:45:16.823Z,987.93
2016-08-04T06:46:16.832Z,987.91
2016-08-04T06:47:16.840Z,987.93
2016-08-04T06:48:16.849Z,987.92
2016-08-04T06:49:16.857Z,987.88
2016-08-04T06:50:16.868Z,987.88
2016-08-04T06:51:16.924Z,987.87
2016-08-04T06:52:16.886Z,987.89
2016-08-04T06:53:16.899Z,987.85
2016-08-04T06:54:16.900Z,987.86
2016-08-04T06:55:16.909Z,987.83
2016-08-04T06:56:16.918Z,987.88
2016-08-04T06:57:16.929Z,987.86
2016-08-04T06:58:16.939Z,987.83
2016-08-04T06:59:16.948Z,987.83
2016-08-04T07:00:17.017Z,987.86
2016-08-04T07:01:16.965Z,987.81
2016-08-04T07:02:16.974Z,987.79
2016-08-04T07:03:16.983Z,987.83
2016-08-04T07:04:16.993Z,987.81
2016-08-04T07:05:17.004Z,987.79
2016-08-04T07:06:17.012Z,987.8
2016-08-04T07:07:17.023Z,987.75
2016-08-04T07:08:17.034Z,987.75
2016-08-04T07:09:17.043Z,987.75
2016-08-04T07:10:17.051Z,987.76
2016-08-04T07:11:17.061Z,987.75
2016-08-04T07:12:17.075Z,987.75
2016-08-04T07:13:17.081Z,987.68
2016-08-04T07:14:17.092Z,987.69
2016-08-04T07:15:17.102Z,987.69
2016-08-04T07:16:17.114Z,987.73
2016-08-04T07:17:17.122Z,987.72
2016-08-04T07:18:17.132Z,987.7
2016-08-04T07:19:17.143Z,987.68
2016-08-04T07:20:17.157Z,987.69
2016-08-04T07:21:17.163Z,987.67
2016-08-04T07:22:17.173Z,987.67
2016-08-04T07:23:17.184Z,987.65
2016-08-04T07:24:17.195Z,987.58
2016-08-04T07:25:17.207Z,987.57
2016-08-04T07:26:17.222Z,987.58
2016-08-04T07:27:17.225Z,987.58
2016-08-04T07:28:17.235Z,987.53
2016-08-04T07:29:17.248Z,987.56
2016-08-04T07:30:17.273Z,987.58
2016-08-04T07:31:17.267Z,987.59
2016-08-04T07:32:17.274Z,987.63
2016-08-04T07:33:17.288Z,987.62
2016-08-04T07:34:17.295Z,987.66
2016-08-04T07:35:17.318Z,987.66
2016-08-04T07:36:17.312Z,987.67
2016-08-04T07:37:17.329Z,987.67
2016-08-04T07:38:17.334Z,987.71
2016-08-04T07:39:17.338Z,987.71
2016-08-04T07:40:17.347Z,987.73
2016-08-04T07:41:17.356Z,987.72
2016-08-04T07:42:17.364Z,987.69
2016-08-04T07:43:17.374Z,987.65
2016-08-04T07:44:17.383Z,987.61
2016-08-04T07:45:17.391Z,987.6
2016-08-04T07:46:17.399Z,987.59
2016-08-04T07:47:17.408Z,987.59
2016-08-04T07:48:17.417Z,987.62
2016-08-04T07:49:17.427Z,987.61
2016-08-04T07:50:17.436Z,987.61
2016-08-04T07:51:17.443Z,987.63
2016-08-04T07:52:17.449Z,987.6
2016-08-04T07:53:17.457Z,987.68
2016-08-04T07:54:17.466Z,987.67
2016-08-04T07:55:17.474Z,987.73
2016-08-04T07:56:17.482Z,987.68
2016-08-04T07:57:17.488Z,987.71
2016-08-04T07:58:17.496Z,987.73
2016-08-04T07:59:17.505Z,987.71
2016-08-04T08:00:17.512Z,987.71
2016-08-04T08:01:17.522Z,987.69
2016-08-04T08:02:17.536Z,987.74
2016-08-04T08:03:17.535Z,987.71
2016-08-04T08:04:17.550Z,987.71
2016-08-04T08:05:17.553Z,987.74
2016-08-04T08:06:17.556Z,987.71
2016-08-04T08:07:17.564Z,987.72
2016-08-04T08:08:17.581Z,987.7
2016-08-04T08:09:17.584Z,987.7
2016-08-04T08:10:17.587Z,987.72
2016-08-04T08:11:17.597Z,987.66
2016-08-04T08:12:17.609Z,987.71
2016-08-04T08:13:17.611Z,987.65
2016-08-04T08:14:17.618Z,987.7
2016-08-04T08:15:17.620Z,987.69
2016-08-04T08:16:17.637Z,987.71
2016-08-04T08:17:17.636Z,987.76
2016-08-04T08:18:17.640Z,987.72
2016-08-04T08:19:17.646Z,987.78
2016-08-04T08:20:17.653Z,987.77
2016-08-04T08:21:17.659Z,987.84
2016-08-04T08:22:17.666Z,987.77
2016-08-04T08:23:17.671Z,987.73
2016-08-04T08:24:17.678Z,987.74
2016-08-04T08:25:17.685Z,987.81
2016-08-04T08:26:17.699Z,987.83
2016-08-04T08:27:17.703Z,987.83
2016-08-04T08:28:17.703Z,987.81
2016-08-04T08:29:17.711Z,987.82
2016-08-04T08:30:17.715Z,987.83
2016-08-04T08:31:17.722Z,987.78
2016-08-04T08:32:17.730Z,987.75
2016-08-04T08:33:17.736Z,987.8
2016-08-04T08:34:17.741Z,987.74
2016-08-04T08:35:17.747Z,987.76
2016-08-04T08:36:17.754Z,987.72
2016-08-04T08:37:17.761Z,987.77
2016-08-04T08:38:17.767Z,987.78
2016-08-04T08:39:17.775Z,987.78
2016-08-04T08:40:17.783Z,987.8
2016-08-04T08:41:17.788Z,987.79
2016-08-04T08:42:17.799Z,987.78
2016-08-04T08:43:17.805Z,987.8
2016-08-04T08:44:17.808Z,987.79
2016-08-04T08:45:17.815Z,987.74
2016-08-04T08:46:17.821Z,987.77
2016-08-04T08:47:17.830Z,987.76
2016-08-04T08:48:17.836Z,987.77
2016-08-04T08:49:17.841Z,987.8
2016-08-04T08:50:17.850Z,987.78
2016-08-04T08:51:17.960Z,987.79
2016-08-04T08:52:17.861Z,987.74
2016-08-04T08:53:17.870Z,987.74
2016-08-04T08:54:17.877Z,987.74
2016-08-04T08:55:17.884Z,987.74
2016-08-04T08:56:17.891Z,987.77
2016-08-04T08:57:17.898Z,987.8
2016-08-04T08:58:17.906Z,987.77
2016-08-04T08:59:17.914Z,987.72
2016-08-04T09:00:17.922Z,987.72
2016-08-04T09:01:17.937Z,987.74
2016-08-04T09:02:17.937Z,987.68
2016-08-04T09:03:17.944Z,987.71
2016-08-04T09:04:17.952Z,987.66
2016-08-04T09:05:18.032Z,987.65
2016-08-04T09:06:17.973Z,987.67
2016-08-04T09:07:17.975Z,987.65
2016-08-04T09:08:17.985Z,987.61
2016-08-04T09:09:18.001Z,987.6
2016-08-04T09:10:18.051Z,987.57
2016-08-04T09:11:18.006Z,987.61
2016-08-04T09:12:18.013Z,987.59
2016-08-04T09:13:18.021Z,987.58
2016-08-04T09:14:18.028Z,987.6
2016-08-04T09:15:18.039Z,987.62
2016-08-04T09:16:18.044Z,987.6
2016-08-04T09:17:18.060Z,987.58
2016-08-04T09:18:18.058Z,987.56
2016-08-04T09:19:18.068Z,987.59
2016-08-04T09:20:18.075Z,987.6
2016-08-04T09:21:18.082Z,987.59
2016-08-04T09:22:18.094Z,987.59
2016-08-04T09:23:18.098Z,987.63
2016-08-04T09:24:18.106Z,987.59
2016-08-04T09:25:18.121Z,987.58
2016-08-04T09:26:18.120Z,987.61
2016-08-04T09:27:18.129Z,987.58
2016-08-04T09:28:18.135Z,987.59
2016-08-04T09:29:18.148Z,987.56
2016-08-04T09:30:18.159Z,987.57
2016-08-04T09:31:18.158Z,987.6
2016-08-04T09:32:18.165Z,987.57
2016-08-04T09:33:18.173Z,987.53
2016-08-04T09:34:18.181Z,987.51
2016-08-04T09:35:18.188Z,987.57
2016-08-04T09:36:18.195Z,987.6
2016-08-04T09:37:18.204Z,987.6
2016-08-04T09:38:18.213Z,987.62
2016-08-04T09:39:18.227Z,987.62
2016-08-04T09:40:18.229Z,987.66
2016-08-04T09:41:18.245Z,987.65
2016-08-04T09:42:18.246Z,987.68
2016-08-04T09:43:18.253Z,987.66
2016-08-04T09:44:18.267Z,987.69
2016-08-04T09:45:18.266Z,987.66
2016-08-04T09:46:18.277Z,987.6
2016-08-04T09:47:18.289Z,987.55
2016-08-04T09:48:18.292Z,987.55
2016-08-04T09:49:18.307Z,987.53
2016-08-04T09:50:18.304Z,987.52
2016-08-04T09:51:18.372Z,987.47
2016-08-04T09:52:18.322Z,987.5
2016-08-04T09:53:18.333Z,987.56
2016-08-04T09:54:18.334Z,987.59
2016-08-04T09:55:18.342Z,987.54
2016-08-04T09:56:18.356Z,987.6
2016-08-04T09:57:18.357Z,987.6
2016-08-04T09:58:18.364Z,987.58
2016-08-04T09:59:18.374Z,987.6
2016-08-04T10:00:18.379Z,987.62
2016-08-04T10:01:18.386Z,987.58
2016-08-04T10:02:18.394Z,987.57
2016-08-04T10:03:18.411Z,987.55
2016-08-04T10:04:18.416Z,987.53
2016-08-04T10:05:18.423Z,987.51
2016-08-04T10:06:18.426Z,987.53
2016-08-04T10:07:18.434Z,987.52
2016-08-04T10:08:18.440Z,987.53
2016-08-04T10:09:18.448Z,987.56
2016-08-04T10:10:18.522Z,987.51
2016-08-04T10:11:18.472Z,987.54
2016-08-04T10:12:18.470Z,987.53
2016-08-04T10:13:18.483Z,987.52
2016-08-04T10:14:18.489Z,987.55
2016-08-04T10:15:18.496Z,987.55
2016-08-04T10:16:18.501Z,987.56
2016-08-04T10:17:18.514Z,987.6
2016-08-04T10:18:18.519Z,987.54
2016-08-04T10:19:18.523Z,987.5
2016-08-04T10:20:18.530Z,987.49
2016-08-04T10:21:18.539Z,987.48
2016-08-04T10:22:18.547Z,987.5
2016-08-04T10:23:18.555Z,987.52
2016-08-04T10:24:18.562Z,987.58
2016-08-04T10:25:18.577Z,987.54
2016-08-04T10:26:18.580Z,987.51
2016-08-04T10:27:18.587Z,987.49
2016-08-04T10:28:18.597Z,987.52
2016-08-04T10:29:18.601Z,987.46
2016-08-04T10:30:18.613Z,987.49
2016-08-04T10:31:18.616Z,987.46
2016-08-04T10:32:18.625Z,987.45
2016-08-04T10:33:18.632Z,987.43
2016-08-04T10:34:18.641Z,987.43
2016-08-04T10:35:18.647Z,987.41
2016-08-04T10:36:18.656Z,987.46
2016-08-04T10:38:18.671Z,987.45
2016-08-04T10:39:18.678Z,987.48
2016-08-04T10:40:18.686Z,987.5
2016-08-04T10:41:18.694Z,987.58
2016-08-04T10:42:18.702Z,987.56
2016-08-04T10:43:18.711Z,987.48
2016-08-04T10:44:18.718Z,987.48
2016-08-04T10:45:18.780Z,987.44
2016-08-04T10:46:18.735Z,987.4
2016-08-04T10:47:18.742Z,987.35
2016-08-04T10:48:18.763Z,987.33
2016-08-04T10:49:18.760Z,987.32
2016-08-04T10:50:18.770Z,987.32
2016-08-04T10:51:18.773Z,987.27
2016-08-04T10:53:18.788Z,987.29
2016-08-04T10:54:18.795Z,987.27
2016-08-04T10:55:18.805Z,987.24
2016-08-04T10:56:18.822Z,987.25
2016-08-04T10:57:18.830Z,987.23
2016-08-04T10:58:18.832Z,987.19
2016-08-04T10:59:18.834Z,987.14
2016-08-04T11:00:18.845Z,987.17
2016-08-04T11:01:18.850Z,987.16
2016-08-04T11:02:18.859Z,987.11
2016-08-04T11:03:18.866Z,987.12
2016-08-04T11:04:18.872Z,987.08
2016-08-04T11:05:18.890Z,987.19
2016-08-04T11:06:18.888Z,987.14
2016-08-04T11:08:18.903Z,987.19
2016-08-04T11:09:18.913Z,987.28
2016-08-04T11:10:18.917Z,987.29
2016-08-04T11:11:18.924Z,987.3
2016-08-04T11:12:18.937Z,987.31
2016-08-04T11:13:18.939Z,987.31
2016-08-04T11:14:18.946Z,987.32
2016-08-04T11:15:18.953Z,987.28
2016-08-04T11:16:18.963Z,987.29
2016-08-04T11:17:18.970Z,987.24
2016-08-04T11:18:18.985Z,987.18
2016-08-04T11:19:18.991Z,987.17
2016-08-04T11:20:18.993Z,987.15
2016-08-04T11:21:18.999Z,987.2
2016-08-04T11:22:19.006Z,987.19
2016-08-04T11:23:19.013Z,987.17
2016-08-04T11:24:19.028Z,987.19
2016-08-04T11:25:19.032Z,987.2
2016-08-04T11:26:19.043Z,987.17
2016-08-04T11:27:19.057Z,987.2
2016-08-04T11:28:19.059Z,987.18
2016-08-04T11:29:19.056Z,987.17
2016-08-04T11:30:19.066Z,987.1
2016-08-04T11:31:19.073Z,987.08
2016-08-04T11:32:19.080Z,987.05
2016-08-04T11:33:19.087Z,987.02
2016-08-04T11:34:19.097Z,987.08
2016-08-04T11:35:19.104Z,987.1
2016-08-04T11:36:19.117Z,987.13
2016-08-04T11:37:19.117Z,987.13
2016-08-04T11:38:19.125Z,987.07
2016-08-04T11:39:19.134Z,987.02
2016-08-04T11:40:19.202Z,987.03
2016-08-04T11:41:19.149Z,986.96
2016-08-04T11:42:19.163Z,986.97
2016-08-04T11:43:19.176Z,986.94
2016-08-04T11:44:19.186Z,986.79
2016-08-04T11:45:19.181Z,986.78
2016-08-04T11:46:19.189Z,986.79
2016-08-04T11:47:19.196Z,986.76
2016-08-04T11:48:19.203Z,986.78
2016-08-04T11:49:19.212Z,986.77
2016-08-04T11:50:19.222Z,986.77
2016-08-04T11:51:19.328Z,986.73
2016-08-04T11:53:19.244Z,986.76
2016-08-04T11:54:19.252Z,986.75
2016-08-04T11:55:19.264Z,986.76
2016-08-04T11:56:19.266Z,986.7
2016-08-04T11:57:19.274Z,986.69
2016-08-04T11:58:19.281Z,986.72
2016-08-04T11:59:19.290Z,986.69
2016-08-04T12:00:19.304Z,986.68
2016-08-04T12:01:19.304Z,986.69
2016-08-04T12:02:19.312Z,986.74
2016-08-04T12:03:19.320Z,986.75
2016-08-04T12:04:19.329Z,986.64
2016-08-04T12:05:19.337Z,986.68
2016-08-04T12:06:19.344Z,986.68
2016-08-04T12:07:19.352Z,986.72
2016-08-04T12:08:19.369Z,986.62
2016-08-04T12:09:19.368Z,986.62
2016-08-04T12:10:19.375Z,986.64
2016-08-04T12:11:19.384Z,986.57
2016-08-04T12:12:19.393Z,986.55
2016-08-04T12:13:19.400Z,986.55
2016-08-04T12:14:19.412Z,986.55
2016-08-04T12:15:19.416Z,986.52
2016-08-04T12:16:19.422Z,986.54
2016-08-04T12:17:19.431Z,986.49
2016-08-04T12:18:19.439Z,986.57
2016-08-04T12:19:19.447Z,986.62
2016-08-04T12:20:19.453Z,986.64
2016-08-04T12:21:19.461Z,986.59
2016-08-04T12:22:19.480Z,986.61
2016-08-04T12:23:19.489Z,986.57
2016-08-04T12:24:19.483Z,986.61
2016-08-04T12:25:19.491Z,986.54
2016-08-04T12:26:19.499Z,986.54
2016-08-04T12:27:19.511Z,986.47
2016-08-04T12:28:19.514Z,986.52
2016-08-04T12:29:19.522Z,986.5
2016-08-04T12:30:19.531Z,986.42
2016-08-04T12:31:19.536Z,986.38
2016-08-04T12:32:19.542Z,986.44
2016-08-04T12:33:19.552Z,986.42
2016-08-04T12:34:19.558Z,986.41
2016-08-04T12:35:19.564Z,986.38
2016-08-04T12:36:19.576Z,986.42
2016-08-04T12:37:19.589Z,986.51
2016-08-04T12:38:19.587Z,986.52
2016-08-04T12:39:19.592Z,986.5
2016-08-04T12:40:19.600Z,986.43
2016-08-04T12:41:19.608Z,986.46
2016-08-04T12:42:19.615Z,986.35